New Straitsville, Ohio
Current Conditions -  °F | °C
As of 3:20 PM on Friday 31 Oct 2014 (Local Time) from KLHQ Reporting Station
Light Rain Light Rain  
Wind Chill: 45°   Ceiling: 2500
Heat Index: 47°   Visibility: 10mi
Dew Point: 40°   Wind: 5mph
Humidity: 77%   Direction: 210°SSW
Pressure: 29.85"   Gusts: NA
Location:  39.58°N, 82.24°W
Report Text: KLHQ 311920Z AUTO 21004KT 10SM -RA SCT020 BKN025 OVC040 08/04 A2985 RMK AO2 RAB09 P0000 T00830044
Loading
Personal Weather Stations






























Interactive Weather Map
Tropical Storm Tracking
New forecast layout! Learn more

10-Day Weather Forecast

Advertisements
Track Severe Weather on mobile